Cape Hatteras, North Carolina
Current Conditions -  °F | °C
As of 11:51 PM on Saturday 20 Dec 2014 (Local Time) from KHSE Reporting Station
Clear Clear  
Wind Chill: 38°   Ceiling: Unl
Heat Index: 42°   Visibility: 10mi
Dew Point: 37°   Wind: 6mph
Humidity: 82%   Direction: 30°NNE
Pressure: 30.25"   Gusts: NA
Location:  35.23°N, 75.62°W
Report Text: KHSE 210451Z AUTO 03005KT 10SM CLR 06/03 A3025 RMK AO2 SLP245 T00560028 400670044 TSNO
Loading
Personal Weather Stations






























Interactive Weather Map New forecast layout! Learn more

10-Day Weather Forecast

Advertisements
Track Severe Weather on mobile